Time;durP1;ratioP1;P1;durP2;ratioP2;P2;SDS_P1;SDS_P2;PMS_P1;PMS_P2;Temp;Humidity;BMP_temperature;BMP_pressure;BME280_temperature;BME280_humidity;BME280_pressure;Samples;Min_cycle;Max_cycle;Signal;HPM_P1;HPM_P2
2023/09/18 00:02:20;;;;;;;27.38;25.02;;;19.10;99.90;;;;;;5029035;28;20052;-90
2023/09/18 00:04:46;;;;;;;19.98;14.07;;;19.10;99.90;;;;;;5033324;28;20033;-91
2023/09/18 00:07:11;;;;;;;24.17;21.92;;;19.00;99.90;;;;;;5016184;28;20522;-91
2023/09/18 00:09:37;;;;;;;24.92;22.77;;;19.00;99.90;;;;;;5016630;28;20045;-91
2023/09/18 00:12:03;;;;;;;26.67;24.38;;;19.00;99.90;;;;;;5030307;28;20059;-90
2023/09/18 00:14:29;;;;;;;26.15;23.85;;;19.00;99.90;;;;;;5029998;28;20033;-90
2023/09/18 00:16:57;;;;;;;27.38;24.98;;;19.00;99.90;;;;;;5032181;28;20052;-91
2023/09/18 00:19:23;;;;;;;23.75;21.65;;;19.00;99.90;;;;;;5019746;28;20455;-90
2023/09/18 00:21:49;;;;;;;28.27;25.67;;;19.00;99.90;;;;;;5036212;28;20032;-90
2023/09/18 00:24:14;;;;;;;30.48;27.77;;;19.00;99.90;;;;;;5030913;28;20037;-90
2023/09/18 00:26:40;;;;;;;27.52;25.02;;;19.00;99.90;;;;;;5035971;28;20037;-90
2023/09/18 00:29:05;;;;;;;17.63;15.40;;;19.00;99.90;;;;;;5028784;28;20504;-91
2023/09/18 00:31:31;;;;;;;25.15;22.95;;;19.00;99.90;;;;;;5035557;28;20049;-91
2023/09/18 00:33:57;;;;;;;24.58;22.38;;;18.90;99.90;;;;;;5035716;28;20048;-90
2023/09/18 00:36:22;;;;;;;26.35;23.95;;;18.90;99.90;;;;;;5035540;28;20041;-90
2023/09/18 00:38:48;;;;;;;27.98;25.50;;;19.00;99.90;;;;;;5034711;28;20070;-91
2023/09/18 00:41:13;;;;;;;26.65;24.17;;;19.00;99.90;;;;;;5019379;28;20041;-90
2023/09/18 00:43:39;;;;;;;27.13;24.83;;;19.00;99.90;;;;;;5018871;28;20175;-90
2023/09/18 00:46:05;;;;;;;31.02;28.33;;;19.00;99.90;;;;;;5035964;28;20043;-91
2023/09/18 00:48:31;;;;;;;28.90;26.30;;;19.00;99.90;;;;;;5034647;28;20124;-91
2023/09/18 00:50:56;;;;;;;27.73;25.25;;;19.10;99.90;;;;;;5034617;28;20546;-91
2023/09/18 00:53:24;;;;;;;27.80;25.38;;;19.10;99.90;;;;;;5034791;28;20051;-90
2023/09/18 00:55:56;;;;;;;28.20;25.45;;;19.10;99.90;;;;;;5035277;28;20080;-91
2023/09/18 00:58:22;;;;;;;16.60;13.50;;;19.10;99.90;;;;;;5034829;28;20103;-90
2023/09/18 01:00:50;;;;;;;26.52;24.23;;;19.00;99.90;;;;;;5034979;28;20132;-91
2023/09/18 01:03:18;;;;;;;25.13;22.90;;;19.00;99.90;;;;;;5019025;28;20029;-91
2023/09/18 01:05:44;;;;;;;25.58;23.17;;;19.10;99.90;;;;;;5018921;28;20033;-91
2023/09/18 01:08:10;;;;;;;25.80;23.50;;;19.00;99.90;;;;;;5033921;28;20048;-90
2023/09/18 01:11:13;;;;;;;27.33;24.70;;;19.10;99.90;;;;;;5035272;28;20076;-91
2023/09/18 01:14:14;;;;;;;24.23;22.05;;;19.00;99.90;;;;;;5034874;28;20037;-91
2023/09/18 01:16:50;;;;;;;26.42;23.98;;;19.10;99.90;;;;;;5021761;28;20052;-91
2023/09/18 01:19:16;;;;;;;27.42;25.05;;;19.00;99.90;;;;;;5017425;28;20033;-91
2023/09/18 01:21:42;;;;;;;25.55;23.35;;;19.00;99.90;;;;;;4993131;28;1205111;-91
2023/09/18 01:24:07;;;;;;;27.05;24.65;;;19.00;99.90;;;;;;5017442;28;20450;-91
2023/09/18 01:26:33;;;;;;;25.00;22.75;;;19.00;99.90;;;;;;5036110;28;20104;-91
2023/09/18 01:28:59;;;;;;;25.27;22.85;;;19.00;99.90;;;;;;5019195;28;20043;-91
2023/09/18 01:31:26;;;;;;;25.77;23.48;;;19.00;99.90;;;;;;5036059;28;20049;-92
2023/09/18 01:33:53;;;;;;;19.52;17.05;;;18.90;99.90;;;;;;5030978;28;20046;-91
2023/09/18 01:36:19;;;;;;;25.65;23.35;;;18.90;99.90;;;;;;5034568;28;20068;-91
2023/09/18 01:38:46;;;;;;;26.67;24.30;;;18.90;99.90;;;;;;5034249;28;20079;-92
2023/09/18 01:41:11;;;;;;;25.90;23.50;;;18.90;99.90;;;;;;5035654;28;20128;-91
2023/09/18 01:43:37;;;;;;;18.88;15.63;;;18.90;99.90;;;;;;5035838;28;20116;-92
2023/09/18 01:46:03;;;;;;;24.00;21.83;;;18.80;99.90;;;;;;5035858;28;20036;-91
2023/09/18 01:48:29;;;;;;;23.02;20.92;;;18.80;99.90;;;;;;5035188;28;20060;-91
2023/09/18 01:50:54;;;;;;;23.77;21.58;;;18.90;99.90;;;;;;5035566;28;20048;-91
2023/09/18 01:53:20;;;;;;;23.95;21.67;;;18.90;99.90;;;;;;5035779;28;20414;-91
2023/09/18 01:55:47;;;;;;;23.10;20.90;;;18.90;99.90;;;;;;5034712;28;20079;-91
2023/09/18 01:58:14;;;;;;;24.58;22.30;;;18.90;99.90;;;;;;5017930;28;20041;-91
2023/09/18 02:00:40;;;;;;;22.73;20.58;;;18.90;99.90;;;;;;5034910;28;20048;-91
2023/09/18 02:03:05;;;;;;;23.77;21.67;;;18.90;99.90;;;;;;5035729;28;20557;-91
2023/09/18 02:05:32;;;;;;;24.65;22.45;;;18.90;99.90;;;;;;5018695;28;20123;-91
2023/09/18 02:07:58;;;;;;;22.58;20.58;;;18.90;99.90;;;;;;5034567;28;20657;-91
2023/09/18 02:10:23;;;;;;;23.95;21.65;;;18.90;99.90;;;;;;5035063;28;20495;-91
2023/09/18 02:12:49;;;;;;;24.33;22.23;;;18.90;99.90;;;;;;5035132;28;20385;-91
2023/09/18 02:15:16;;;;;;;22.88;20.65;;;18.90;99.90;;;;;;5034226;28;20033;-91
2023/09/18 02:17:42;;;;;;;24.13;21.88;;;18.90;99.90;;;;;;5034254;28;20098;-91
2023/09/18 02:20:11;;;;;;;23.38;21.25;;;18.90;99.90;;;;;;5018154;28;20048;-91
2023/09/18 02:22:39;;;;;;;21.95;19.98;;;18.80;99.90;;;;;;5018846;28;20084;-90
2023/09/18 02:25:06;;;;;;;19.20;11.57;;;18.80;99.90;;;;;;5034416;28;20029;-90
2023/09/18 02:27:31;;;;;;;22.50;20.35;;;18.80;99.90;;;;;;5033876;28;20040;-90
2023/09/18 02:29:57;;;;;;;21.52;19.52;;;18.80;99.90;;;;;;5016509;28;20040;-91
2023/09/18 02:32:22;;;;;;;22.13;20.25;;;18.80;99.90;;;;;;5033745;28;20403;-91
2023/09/18 02:34:48;;;;;;;21.63;19.52;;;18.80;99.90;;;;;;5018654;28;20059;-90
2023/09/18 02:37:13;;;;;;;20.85;18.85;;;18.90;99.90;;;;;;5017794;28;20040;-90
2023/09/18 02:39:39;;;;;;;20.08;18.00;;;18.80;99.90;;;;;;5033256;28;20040;-90
2023/09/18 02:42:05;;;;;;;21.58;19.60;;;18.80;99.90;;;;;;5018150;28;20520;-90
2023/09/18 02:44:30;;;;;;;21.65;19.75;;;18.80;99.90;;;;;;5017905;28;20098;-91
2023/09/18 02:46:56;;;;;;;19.95;18.05;;;18.80;99.90;;;;;;5034175;28;20037;-91
2023/09/18 02:49:21;;;;;;;20.20;18.27;;;18.80;99.90;;;;;;5017754;28;20037;-91
2023/09/18 02:51:47;;;;;;;15.45;12.80;;;18.80;99.90;;;;;;5034366;28;20071;-91
2023/09/18 02:54:12;;;;;;;21.08;19.17;;;18.80;99.90;;;;;;5034316;28;20044;-91
2023/09/18 02:56:38;;;;;;;19.95;17.65;;;18.80;99.90;;;;;;5017583;28;20136;-91
2023/09/18 02:59:04;;;;;;;19.15;17.23;;;18.80;99.90;;;;;;5033559;28;20037;-91
2023/09/18 03:01:29;;;;;;;18.88;17.02;;;18.80;99.90;;;;;;5034217;28;20044;-91
2023/09/18 03:03:56;;;;;;;19.60;17.58;;;18.80;99.90;;;;;;5017697;28;20037;-91
2023/09/18 03:06:21;;;;;;;19.08;17.27;;;18.80;99.90;;;;;;5034481;28;20063;-91
2023/09/18 03:08:47;;;;;;;18.30;16.60;;;18.80;99.90;;;;;;5017224;28;20431;-91
2023/09/18 03:11:14;;;;;;;18.77;16.83;;;18.80;99.90;;;;;;5033963;28;20040;-90
2023/09/18 03:13:47;;;;;;;19.48;17.42;;;18.80;99.90;;;;;;5033839;28;20076;-91
2023/09/18 03:16:13;;;;;;;18.70;16.85;;;18.80;99.90;;;;;;5033826;28;20036;-91
2023/09/18 03:18:39;;;;;;;18.95;17.05;;;18.80;99.90;;;;;;5016731;28;20052;-90
2023/09/18 03:21:04;;;;;;;17.90;16.10;;;18.80;99.90;;;;;;5017655;28;20029;-91
2023/09/18 03:23:30;;;;;;;15.70;11.43;;;18.80;99.90;;;;;;5034025;28;20540;-90
2023/09/18 03:25:55;;;;;;;17.48;15.55;;;18.80;99.90;;;;;;5034080;28;20082;-91
2023/09/18 03:28:21;;;;;;;17.52;15.73;;;18.80;99.90;;;;;;5033323;28;20040;-91
2023/09/18 03:30:47;;;;;;;17.33;15.52;;;18.80;99.90;;;;;;5017444;28;20412;-91
2023/09/18 03:33:12;;;;;;;17.73;15.75;;;18.90;99.90;;;;;;5017815;28;20412;-91
2023/09/18 03:35:50;;;;;;;17.27;15.18;;;18.90;99.90;;;;;;5017073;28;20500;-90
2023/09/18 03:38:16;;;;;;;16.88;15.07;;;18.90;99.90;;;;;;5016640;28;20551;-91
2023/09/18 03:40:41;;;;;;;16.85;15.02;;;18.90;99.90;;;;;;5033639;28;20029;-91
2023/09/18 03:43:07;;;;;;;15.48;13.88;;;18.90;99.90;;;;;;5033866;28;20052;-90
2023/09/18 03:45:33;;;;;;;16.75;15.02;;;18.90;99.90;;;;;;5033467;28;20048;-92
2023/09/18 03:47:58;;;;;;;16.92;14.45;;;18.90;99.90;;;;;;5033259;28;20037;-91
2023/09/18 03:50:24;;;;;;;16.77;14.98;;;18.90;99.90;;;;;;5016843;28;20036;-91
2023/09/18 03:52:50;;;;;;;16.35;14.60;;;18.90;99.90;;;;;;5033178;28;20033;-91
2023/09/18 03:55:16;;;;;;;16.88;13.80;;;18.90;99.90;;;;;;5033512;28;20037;-91
2023/09/18 03:57:42;;;;;;;12.98;7.85;;;19.00;99.90;;;;;;5032603;28;20029;-91
2023/09/18 04:00:08;;;;;;;16.17;14.48;;;18.90;99.90;;;;;;5016485;28;20721;-91
2023/09/18 04:02:34;;;;;;;16.90;15.10;;;18.90;99.90;;;;;;5033472;28;20037;-91
2023/09/18 04:05:00;;;;;;;15.63;13.43;;;18.90;99.90;;;;;;5034199;28;20407;-92
2023/09/18 04:07:26;;;;;;;16.10;14.00;;;18.90;99.90;;;;;;5033832;28;20055;-91
2023/09/18 04:09:51;;;;;;;16.30;14.70;;;18.90;99.90;;;;;;5032644;28;20120;-91
2023/09/18 04:12:17;;;;;;;16.05;14.32;;;18.90;99.90;;;;;;5033140;28;20470;-91
2023/09/18 04:14:43;;;;;;;15.73;14.13;;;18.90;99.90;;;;;;5033562;28;20036;-91
2023/09/18 04:17:08;;;;;;;16.27;14.57;;;18.90;99.90;;;;;;5032656;28;20071;-91
2023/09/18 04:19:34;;;;;;;17.83;16.15;;;18.90;99.90;;;;;;5032763;28;20037;-91
2023/09/18 04:21:59;;;;;;;17.10;15.18;;;18.90;99.90;;;;;;5033460;28;20657;-91
2023/09/18 04:24:26;;;;;;;17.38;15.40;;;18.90;99.90;;;;;;5016478;28;20045;-91
2023/09/18 04:26:52;;;;;;;18.77;14.88;;;18.90;99.90;;;;;;5033062;28;20041;-91
2023/09/18 04:29:19;;;;;;;14.25;10.43;;;18.90;99.90;;;;;;5032325;28;20407;-92
2023/09/18 04:31:44;;;;;;;15.98;14.25;;;18.90;99.90;;;;;;5032957;28;20052;-91
2023/09/18 04:34:10;;;;;;;16.85;14.93;;;18.90;99.90;;;;;;5032980;28;20041;-91
2023/09/18 04:36:37;;;;;;;18.35;14.98;;;18.90;99.90;;;;;;5033148;28;20052;-91
2023/09/18 04:39:06;;;;;;;15.65;13.95;;;18.90;99.90;;;;;;5015506;28;20048;-92
2023/09/18 04:41:32;;;;;;;15.02;13.40;;;18.90;99.90;;;;;;5032959;28;20090;-92
2023/09/18 04:43:58;;;;;;;16.17;14.45;;;18.90;99.90;;;;;;5032802;28;20144;-92
2023/09/18 04:46:24;;;;;;;16.35;14.18;;;18.90;99.90;;;;;;5016159;28;20055;-92
2023/09/18 04:48:50;;;;;;;17.92;13.73;;;18.90;99.90;;;;;;5032716;28;20132;-91
2023/09/18 04:51:16;;;;;;;13.90;8.52;;;18.90;99.90;;;;;;5016431;28;20041;-91
2023/09/18 04:53:42;;;;;;;16.70;13.77;;;18.80;99.90;;;;;;5032323;28;20095;-90
2023/09/18 04:56:10;;;;;;;16.77;15.02;;;18.90;99.90;;;;;;5032062;28;20048;-91
2023/09/18 04:58:37;;;;;;;15.32;13.73;;;18.90;99.90;;;;;;5031831;28;20037;-91
2023/09/18 05:01:05;;;;;;;18.77;13.85;;;18.90;99.90;;;;;;5016345;28;20389;-91
2023/09/18 05:03:35;;;;;;;16.38;13.20;;;18.90;99.90;;;;;;5036170;28;20286;-91
2023/09/18 05:06:00;;;;;;;16.45;13.88;;;18.90;99.90;;;;;;5019548;28;20056;-91
2023/09/18 05:08:26;;;;;;;14.20;12.48;;;18.90;99.90;;;;;;5034053;28;20136;-90
2023/09/18 05:10:51;;;;;;;15.95;13.13;;;18.90;99.90;;;;;;5019958;28;20041;-91
2023/09/18 05:13:17;;;;;;;16.95;13.18;;;19.00;99.90;;;;;;5036244;28;20083;-91
2023/09/18 05:15:42;;;;;;;15.75;12.77;;;19.00;99.90;;;;;;5033000;28;20075;-91
2023/09/18 05:18:08;;;;;;;16.83;12.20;;;19.00;99.90;;;;;;5016251;28;20036;-90
2023/09/18 05:20:35;;;;;;;15.65;12.52;;;19.00;99.90;;;;;;5019454;28;20037;-91
2023/09/18 05:23:04;;;;;;;16.98;12.07;;;19.00;99.90;;;;;;5019396;28;20068;-90
2023/09/18 05:25:31;;;;;;;17.60;12.13;;;19.00;99.90;;;;;;5019200;28;20086;-91
2023/09/18 05:27:59;;;;;;;14.35;11.93;;;19.10;99.90;;;;;;5035878;28;20037;-90
2023/09/18 05:30:34;;;;;;;12.57;6.95;;;19.10;99.90;;;;;;5035302;28;20041;-91
2023/09/18 05:33:04;;;;;;;14.52;10.80;;;19.00;99.90;;;;;;5024979;28;20470;-91
2023/09/18 05:35:44;;;;;;;15.88;11.45;;;19.00;99.90;;;;;;5035800;28;20076;-91
2023/09/18 05:38:14;;;;;;;14.20;10.88;;;19.10;99.90;;;;;;5034900;28;20041;-91
2023/09/18 05:40:40;;;;;;;14.38;11.27;;;19.10;99.90;;;;;;5019043;28;20028;-91
2023/09/18 05:43:07;;;;;;;15.02;11.25;;;19.10;99.90;;;;;;5019895;28;20033;-92
2023/09/18 05:45:33;;;;;;;14.02;7.00;;;19.10;99.90;;;;;;5035864;28;20033;-91
2023/09/18 05:48:03;;;;;;;15.65;11.05;;;19.00;99.90;;;;;;5019010;28;20033;-92
2023/09/18 05:50:31;;;;;;;14.00;11.95;;;19.10;99.90;;;;;;5019411;28;20119;-92
2023/09/18 05:53:03;;;;;;;13.45;10.95;;;19.10;99.90;;;;;;5019311;28;20037;-92
2023/09/18 05:55:35;;;;;;;12.32;8.13;;;19.10;99.90;;;;;;5035284;28;20087;-92
2023/09/18 05:58:03;;;;;;;16.92;10.38;;;19.10;99.90;;;;;;5018358;28;20077;-91
2023/09/18 06:00:30;;;;;;;14.63;11.07;;;19.10;99.90;;;;;;5035161;28;20041;-92
2023/09/18 06:02:56;;;;;;;15.30;10.93;;;19.20;99.90;;;;;;5019190;28;20044;-91
2023/09/18 06:05:22;;;;;;;16.40;11.10;;;19.20;99.90;;;;;;5035733;28;20041;-91
2023/09/18 06:07:48;;;;;;;15.52;11.05;;;19.20;99.90;;;;;;5018291;28;20033;-91
2023/09/18 06:10:14;;;;;;;14.50;11.02;;;19.30;99.90;;;;;;5027598;28;20037;-90
2023/09/18 06:12:40;;;;;;;15.68;10.13;;;19.30;99.90;;;;;;5034976;28;20036;-91
2023/09/18 06:15:09;;;;;;;14.88;10.05;;;19.40;99.90;;;;;;5034327;28;20082;-92
2023/09/18 06:17:36;;;;;;;14.27;10.52;;;19.40;99.90;;;;;;5035300;28;20040;-92
2023/09/18 06:20:03;;;;;;;16.85;10.25;;;19.40;99.90;;;;;;5034969;28;20056;-91
2023/09/18 06:22:29;;;;;;;15.73;9.82;;;19.50;99.90;;;;;;5035837;28;20071;-91
2023/09/18 06:24:54;;;;;;;16.15;9.77;;;19.50;99.90;;;;;;5035911;28;20488;-91
2023/09/18 06:27:20;;;;;;;12.45;9.65;;;19.50;99.90;;;;;;5034564;28;20029;-91
2023/09/18 06:29:46;;;;;;;15.55;9.50;;;19.50;99.90;;;;;;5034315;28;20775;-90
2023/09/18 06:32:12;;;;;;;12.77;8.48;;;19.50;99.90;;;;;;5026437;28;20041;-91
2023/09/18 06:34:38;;;;;;;15.05;9.30;;;19.60;99.90;;;;;;5036219;28;20082;-88
2023/09/18 06:37:06;;;;;;;16.70;9.07;;;19.60;99.90;;;;;;5020300;28;20037;-90
2023/09/18 06:39:31;;;;;;;14.90;9.43;;;19.60;99.90;;;;;;5018473;28;20037;-90
2023/09/18 06:41:57;;;;;;;15.20;8.98;;;19.70;99.90;;;;;;5037775;28;20518;-89
2023/09/18 06:44:23;;;;;;;14.52;9.10;;;19.70;99.90;;;;;;5047648;28;20469;-91
2023/09/18 06:46:49;;;;;;;17.02;9.77;;;19.70;99.90;;;;;;5048678;28;20088;-91
2023/09/18 06:49:17;;;;;;;14.35;8.95;;;19.80;99.90;;;;;;5027561;28;20069;-91
2023/09/18 06:51:43;;;;;;;16.80;9.20;;;19.90;99.90;;;;;;5045817;28;20037;-90
2023/09/18 06:54:09;;;;;;;13.88;10.20;;;19.90;99.90;;;;;;5043821;28;20134;-91
2023/09/18 06:56:34;;;;;;;18.40;11.15;;;19.90;99.90;;;;;;5038655;28;20048;-91
2023/09/18 06:59:00;;;;;;;22.40;13.38;;;19.90;99.90;;;;;;5038300;28;20531;-92
2023/09/18 07:01:27;;;;;;;19.15;13.23;;;19.90;99.90;;;;;;5019805;28;20052;-91
2023/09/18 07:03:52;;;;;;;22.13;14.20;;;19.80;99.90;;;;;;5023507;28;20492;-91
2023/09/18 07:06:21;;;;;;;19.52;13.65;;;19.70;99.90;;;;;;5036507;28;20037;-91
2023/09/18 07:08:50;;;;;;;19.27;14.60;;;19.70;99.90;;;;;;5017349;28;20462;-90
2023/09/18 07:11:17;;;;;;;18.33;14.68;;;19.70;99.90;;;;;;5034512;28;20040;-90
2023/09/18 07:13:43;;;;;;;19.77;14.75;;;19.70;99.90;;;;;;5019876;28;20037;-91
2023/09/18 07:16:10;;;;;;;18.60;14.38;;;19.70;99.90;;;;;;5030044;28;20037;-90
2023/09/18 07:18:35;;;;;;;17.70;14.90;;;19.70;99.90;;;;;;5016689;28;20048;-92
2023/09/18 07:21:01;;;;;;;17.40;15.45;;;19.70;99.90;;;;;;5033396;28;20036;-91
2023/09/18 07:23:27;;;;;;;16.80;14.85;;;19.70;99.90;;;;;;5016314;28;20419;-91
2023/09/18 07:25:53;;;;;;;17.88;14.55;;;19.70;99.90;;;;;;5030939;28;20037;-91
2023/09/18 07:28:19;;;;;;;13.85;8.05;;;19.70;99.90;;;;;;5031969;28;20120;-91
2023/09/18 07:30:46;;;;;;;17.73;15.25;;;19.70;99.90;;;;;;5032318;28;20435;-91
2023/09/18 07:33:15;;;;;;;17.20;14.82;;;19.80;99.90;;;;;;5015467;28;20049;-91
2023/09/18 07:35:41;;;;;;;18.83;14.85;;;19.80;99.90;;;;;;5031556;28;20056;-92
2023/09/18 07:38:07;;;;;;;17.83;14.25;;;19.80;99.90;;;;;;5014801;28;20045;-90
2023/09/18 07:40:33;;;;;;;17.25;14.55;;;19.90;99.90;;;;;;5016853;28;20036;-91
2023/09/18 07:42:59;;;;;;;17.55;15.50;;;19.90;99.90;;;;;;5033671;28;20060;-91
2023/09/18 07:45:24;;;;;;;16.38;14.68;;;19.90;99.90;;;;;;5033962;28;20029;-91
2023/09/18 07:47:50;;;;;;;18.00;15.32;;;19.90;99.90;;;;;;5017455;28;20033;-91
2023/09/18 07:50:16;;;;;;;16.90;14.70;;;20.00;99.90;;;;;;5033315;28;20434;-91
2023/09/18 07:52:42;;;;;;;18.52;15.25;;;20.00;99.90;;;;;;5016682;28;20483;-92
2023/09/18 07:55:08;;;;;;;17.83;14.68;;;20.00;99.90;;;;;;5033271;28;20055;-91
2023/09/18 07:57:34;;;;;;;16.33;13.90;;;20.00;99.90;;;;;;5032116;28;20045;-91
2023/09/18 08:00:07;;;;;;;16.25;14.20;;;20.00;99.90;;;;;;5016814;28;20040;-91
2023/09/18 08:02:34;;;;;;;16.17;14.13;;;20.10;99.90;;;;;;5016583;28;20037;-91
2023/09/18 08:05:01;;;;;;;15.90;13.23;;;20.10;99.90;;;;;;5033540;28;20041;-92
2023/09/18 08:07:28;;;;;;;15.40;13.48;;;20.10;99.90;;;;;;5016625;28;20051;-92
2023/09/18 08:09:53;;;;;;;16.23;13.10;;;20.10;99.90;;;;;;5032644;28;20470;-92
2023/09/18 08:12:19;;;;;;;15.77;12.65;;;20.10;99.90;;;;;;5033554;28;20049;-92
2023/09/18 08:14:45;;;;;;;17.40;13.98;;;20.10;99.90;;;;;;5016743;28;20479;-91
2023/09/18 08:17:10;;;;;;;15.48;13.07;;;20.10;99.90;;;;;;5033267;28;20102;-91
2023/09/18 08:19:37;;;;;;;16.58;13.13;;;20.10;99.90;;;;;;5032854;28;20048;-91
2023/09/18 08:22:03;;;;;;;17.63;15.18;;;20.10;99.90;;;;;;5016942;28;20048;-92
2023/09/18 08:24:29;;;;;;;16.08;14.43;;;20.10;99.90;;;;;;5016636;28;20556;-92
2023/09/18 08:26:55;;;;;;;17.63;15.40;;;20.10;99.90;;;;;;5015832;28;20123;-91
2023/09/18 08:29:22;;;;;;;16.58;14.60;;;20.10;99.90;;;;;;5016925;28;20399;-91
2023/09/18 08:31:49;;;;;;;19.65;15.40;;;20.10;99.90;;;;;;5033628;28;20194;-91
2023/09/18 08:34:14;;;;;;;17.95;16.02;;;20.20;99.90;;;;;;5016491;28;20041;-92
2023/09/18 08:36:40;;;;;;;18.95;15.82;;;20.20;99.90;;;;;;5033597;28;20047;-92
2023/09/18 08:39:06;;;;;;;17.33;15.45;;;20.20;99.90;;;;;;5036832;28;20033;-91
2023/09/18 08:41:32;;;;;;;15.93;14.30;;;20.30;99.90;;;;;;5020056;28;20037;-91
2023/09/18 08:44:03;;;;;;;22.40;15.18;;;20.30;99.90;;;;;;5020290;28;20048;-92
2023/09/18 08:46:34;;;;;;;18.70;15.13;;;20.30;99.90;;;;;;5028039;28;20041;-91
2023/09/18 08:49:00;;;;;;;16.58;14.20;;;20.40;99.90;;;;;;5019677;28;20088;-92
2023/09/18 08:51:26;;;;;;;19.55;14.10;;;20.40;99.90;;;;;;5035808;28;20098;-91
2023/09/18 08:53:54;;;;;;;16.42;13.60;;;20.40;99.90;;;;;;5036423;28;20384;-91
2023/09/18 08:56:21;;;;;;;21.50;14.50;;;20.50;99.90;;;;;;5036736;28;20041;-91
2023/09/18 08:58:47;;;;;;;17.27;14.15;;;20.50;99.90;;;;;;5036037;28;20037;-91
2023/09/18 09:01:13;;;;;;;16.00;11.98;;;20.60;99.90;;;;;;5036486;28;20055;-91
2023/09/18 09:03:40;;;;;;;14.85;12.15;;;20.60;99.90;;;;;;5026329;28;20282;-91
2023/09/18 09:06:06;;;;;;;15.10;12.30;;;20.70;99.90;;;;;;5027731;28;20443;-91
2023/09/18 09:08:33;;;;;;;16.92;12.15;;;20.70;99.90;;;;;;5020730;28;20045;-91
2023/09/18 09:10:58;;;;;;;15.93;11.55;;;20.70;99.90;;;;;;5043938;28;20033;-92
2023/09/18 09:13:28;;;;;;;15.07;10.27;;;20.70;99.90;;;;;;5035372;28;20190;-91
2023/09/18 09:15:57;;;;;;;14.00;10.35;;;20.70;99.90;;;;;;5035910;28;20045;-91
2023/09/18 09:18:25;;;;;;;14.48;10.25;;;20.70;99.90;;;;;;5034999;28;20439;-91
2023/09/18 09:20:58;;;;;;;16.73;11.50;;;20.80;99.90;;;;;;5042028;28;20561;-91
2023/09/18 09:23:29;;;;;;;16.50;11.27;;;20.90;99.90;;;;;;5029045;28;20036;-91
2023/09/18 09:26:15;;;;;;;16.05;10.75;;;21.00;99.90;;;;;;5045907;28;20033;-91
2023/09/18 09:28:43;;;;;;;14.35;10.55;;;21.00;99.90;;;;;;5060423;28;20052;-90
2023/09/18 09:31:10;;;;;;;13.85;10.30;;;21.00;99.90;;;;;;5028250;28;20045;-91
2023/09/18 09:33:38;;;;;;;14.48;9.90;;;21.00;99.90;;;;;;5044912;28;20115;-91
2023/09/18 09:36:05;;;;;;;13.55;9.85;;;21.00;99.90;;;;;;5028468;28;20442;-91
2023/09/18 09:38:33;;;;;;;16.90;9.13;;;21.00;99.90;;;;;;5044215;28;20526;-90
2023/09/18 09:41:00;;;;;;;14.60;8.40;;;21.00;99.90;;;;;;5045059;28;20037;-91
2023/09/18 09:43:27;;;;;;;12.98;8.50;;;21.10;99.90;;;;;;5044802;28;20522;-90
2023/09/18 09:46:02;;;;;;;12.18;7.93;;;21.10;99.90;;;;;;5052132;28;20558;-91
2023/09/18 09:48:31;;;;;;;12.02;7.30;;;21.20;99.90;;;;;;5027589;28;20036;-91
2023/09/18 09:51:00;;;;;;;13.60;7.65;;;21.20;99.90;;;;;;5025272;28;20036;-91
2023/09/18 09:53:47;;;;;;;11.48;7.22;;;21.20;99.90;;;;;;5044972;28;20073;-91
2023/09/18 09:56:14;;;;;;;11.30;7.25;;;21.30;99.90;;;;;;5044712;28;20052;-91
2023/09/18 09:58:43;;;;;;;11.23;7.15;;;21.30;99.90;;;;;;5027955;28;20411;-91
2023/09/18 10:01:17;;;;;;;11.48;6.95;;;21.30;99.90;;;;;;5045216;28;20506;-92
2023/09/18 10:03:43;;;;;;;10.63;6.70;;;21.30;99.90;;;;;;5042765;28;20064;-91
2023/09/18 10:06:12;;;;;;;12.57;6.97;;;21.20;99.90;;;;;;5044363;28;20044;-91
2023/09/18 10:08:39;;;;;;;11.80;6.40;;;21.30;99.90;;;;;;5022932;28;20045;-91
2023/09/18 10:11:16;;;;;;;13.02;6.18;;;21.30;99.90;;;;;;5043033;28;20136;-91
2023/09/18 10:13:46;;;;;;;11.02;6.30;;;21.20;99.90;;;;;;5044543;28;20396;-92
2023/09/18 10:16:13;;;;;;;8.77;5.57;;;21.20;99.90;;;;;;5024044;28;20033;-90
2023/09/18 10:18:59;;;;;;;10.13;5.90;;;21.30;99.90;;;;;;5043654;28;20055;-91
2023/09/18 10:21:43;;;;;;;8.88;5.65;;;21.30;99.90;;;;;;5027638;28;20037;-90
2023/09/18 10:24:18;;;;;;;9.55;5.68;;;21.30;99.90;;;;;;5041926;28;20641;-91
2023/09/18 10:27:06;;;;;;;9.68;5.63;;;21.40;99.90;;;;;;5041932;28;20033;-90
2023/09/18 10:29:34;;;;;;;10.30;5.88;;;21.50;99.90;;;;;;5041847;28;20095;-92
2023/09/18 10:32:03;;;;;;;11.10;5.45;;;21.50;99.90;;;;;;5044278;28;20120;-92
2023/09/18 10:34:30;;;;;;;9.07;5.40;;;21.50;99.90;;;;;;5044229;28;20065;-92
2023/09/18 10:37:00;;;;;;;9.48;4.75;;;21.60;99.90;;;;;;5041800;28;20095;-92
2023/09/18 10:39:28;;;;;;;10.75;5.57;;;21.70;99.90;;;;;;5043125;28;20528;-92
2023/09/18 10:41:56;;;;;;;8.63;5.13;;;21.70;99.90;;;;;;5044357;28;20048;-92
2023/09/18 10:44:23;;;;;;;8.65;4.82;;;21.70;99.90;;;;;;5034747;28;20496;-92
2023/09/18 10:46:51;;;;;;;9.88;4.80;;;21.80;99.90;;;;;;5018384;28;20493;-92
2023/09/18 10:49:17;;;;;;;8.93;4.40;;;21.80;99.90;;;;;;5034279;28;20041;-91
2023/09/18 10:51:43;;;;;;;14.50;4.35;;;21.90;99.90;;;;;;5031227;28;20048;-91
2023/09/18 10:54:10;;;;;;;9.93;4.43;;;22.00;99.90;;;;;;5031450;28;20045;-90
2023/09/18 10:56:36;;;;;;;10.57;4.70;;;22.00;99.90;;;;;;5033774;28;20041;-90
2023/09/18 10:59:05;;;;;;;9.02;4.20;;;22.10;99.90;;;;;;5033530;28;20045;-91
2023/09/18 11:01:31;;;;;;;8.43;3.83;;;22.20;99.90;;;;;;5016812;28;20192;-91
2023/09/18 11:04:01;;;;;;;7.30;3.72;;;22.20;99.90;;;;;;5017939;28;20041;-91
2023/09/18 11:06:27;;;;;;;9.45;3.33;;;22.30;99.90;;;;;;5017934;28;20045;-91
2023/09/18 11:09:04;;;;;;;8.27;3.42;;;22.30;99.90;;;;;;5033751;28;20052;-91
2023/09/18 11:11:32;;;;;;;8.55;3.55;;;22.30;99.90;;;;;;5017593;28;20044;-91
2023/09/18 11:13:59;;;;;;;8.55;3.50;;;22.40;99.90;;;;;;5029501;28;20052;-91
2023/09/18 11:16:28;;;;;;;8.95;3.55;;;22.50;99.90;;;;;;5027770;28;20033;-91
2023/09/18 11:19:05;;;;;;;7.85;3.75;;;22.50;99.90;;;;;;5038251;28;20036;-92
2023/09/18 11:21:32;;;;;;;7.63;3.33;;;22.60;99.90;;;;;;5044286;28;20033;-91
2023/09/18 11:24:04;;;;;;;8.50;3.30;;;22.70;99.90;;;;;;5043989;28;20399;-90
2023/09/18 11:26:34;;;;;;;8.03;3.20;;;22.70;99.90;;;;;;5023126;28;20044;-91
2023/09/18 11:29:09;;;;;;;7.03;2.95;;;22.70;99.90;;;;;;5017285;28;20041;-92
2023/09/18 11:31:53;;;;;;;6.95;2.92;;;22.70;99.90;;;;;;5033556;28;20404;-90
2023/09/18 11:34:32;;;;;;;8.32;3.30;;;22.90;99.90;;;;;;5016073;28;20053;-91
2023/09/18 11:36:58;;;;;;;8.18;2.95;;;23.10;99.90;;;;;;5033725;28;20512;-91
2023/09/18 11:39:38;;;;;;;8.65;3.10;;;23.20;99.90;;;;;;5033307;28;20052;-90
2023/09/18 11:42:16;;;;;;;8.32;2.95;;;23.30;99.90;;;;;;5033753;28;20123;-91
2023/09/18 11:44:43;;;;;;;7.05;3.10;;;23.30;99.90;;;;;;5016903;28;20055;-91
2023/09/18 11:47:18;;;;;;;5.70;2.60;;;23.20;99.90;;;;;;5016775;28;20037;-90
2023/09/18 11:49:56;;;;;;;6.60;3.10;;;23.10;99.90;;;;;;5017335;28;20381;-91
2023/09/18 11:52:22;;;;;;;7.88;2.58;;;23.10;99.90;;;;;;5017056;28;20507;-92
2023/09/18 11:54:49;;;;;;;6.55;2.58;;;23.10;99.90;;;;;;5033178;28;20040;-91
2023/09/18 11:57:15;;;;;;;6.75;2.92;;;23.00;99.90;;;;;;5016402;28;20037;-91
2023/09/18 11:59:46;;;;;;;8.45;2.70;;;22.90;99.90;;;;;;5016776;28;20059;-91
2023/09/18 12:02:27;;;;;;;6.00;2.40;;;23.00;99.90;;;;;;5049715;28;20512;-91
2023/09/18 12:04:56;;;;;;;7.55;2.58;;;23.10;99.90;;;;;;5033717;28;20041;-91
2023/09/18 12:07:23;;;;;;;7.10;2.45;;;23.30;99.90;;;;;;5033324;28;20041;-91
2023/09/18 12:09:48;;;;;;;6.93;2.72;;;23.20;99.90;;;;;;5033132;28;20041;-91
2023/09/18 12:12:15;;;;;;;7.50;2.50;;;23.00;99.90;;;;;;5036204;28;20458;-91
2023/09/18 12:14:44;;;;;;;7.47;2.80;;;22.90;99.90;;;;;;5037267;28;20052;-91
2023/09/18 12:17:15;;;;;;;8.35;2.92;;;22.80;99.90;;;;;;5034511;28;20055;-90
2023/09/18 12:19:51;;;;;;;6.88;2.83;;;22.70;99.90;;;;;;5018670;28;20032;-91
2023/09/18 12:22:24;;;;;;;8.23;2.13;;;22.60;99.90;;;;;;5036575;28;20037;-92
2023/09/18 12:24:49;;;;;;;6.32;2.58;;;22.50;99.90;;;;;;5020815;28;20045;-91
2023/09/18 12:27:15;;;;;;;7.57;2.33;;;22.40;99.90;;;;;;5037620;28;20385;-92
2023/09/18 12:29:43;;;;;;;8.50;2.65;;;22.30;99.90;;;;;;5042597;28;20037;-91
2023/09/18 12:32:13;;;;;;;9.07;2.65;;;22.20;99.90;;;;;;5044688;28;20041;-91
2023/09/18 12:34:41;;;;;;;9.13;3.22;;;22.00;99.90;;;;;;5026791;28;20117;-91